createdAt,value
2022-10-23T00:00:32.326Z,12.50
2022-10-23T00:03:04.395Z,12.50
2022-10-23T00:05:38.789Z,12.50
2022-10-23T00:08:10.556Z,12.50
2022-10-23T00:10:42.918Z,12.50
2022-10-23T00:13:14.702Z,12.50
2022-10-23T00:15:46.459Z,12.50
2022-10-23T00:18:18.220Z,12.50
2022-10-23T00:20:49.941Z,12.50
2022-10-23T00:23:21.702Z,12.50
2022-10-23T00:25:58.366Z,12.50
2022-10-23T00:28:30.135Z,12.50
2022-10-23T00:31:05.168Z,12.50
2022-10-23T00:33:36.970Z,12.50
2022-10-23T00:36:10.083Z,12.40
2022-10-23T00:38:41.875Z,12.40
2022-10-23T00:41:16.073Z,12.40
2022-10-23T00:43:59.908Z,12.30
2022-10-23T00:46:32.137Z,12.30
2022-10-23T00:49:07.219Z,12.20
2022-10-23T00:51:41.370Z,12.30
2022-10-23T00:54:29.425Z,12.20
2022-10-23T00:57:02.119Z,12.30
2022-10-23T00:59:34.252Z,12.20
2022-10-23T01:02:06.114Z,12.20
2022-10-23T01:04:38.141Z,12.20
2022-10-23T01:07:20.232Z,12.20
2022-10-23T01:09:54.857Z,12.20
2022-10-23T01:12:26.565Z,12.20
2022-10-23T01:14:58.600Z,12.20
2022-10-23T01:17:44.453Z,12.20
2022-10-23T01:20:16.548Z,12.20
2022-10-23T01:22:51.029Z,12.20
2022-10-23T01:25:32.237Z,12.30
2022-10-23T01:28:09.576Z,12.30
2022-10-23T01:30:43.304Z,12.20
2022-10-23T01:33:24.735Z,12.30
2022-10-23T01:36:00.539Z,12.30
2022-10-23T01:38:43.398Z,12.30
2022-10-23T01:41:24.695Z,12.30
2022-10-23T01:43:56.380Z,12.40
2022-10-23T01:46:31.362Z,12.40
2022-10-23T01:49:05.678Z,12.40
2022-10-23T01:51:41.086Z,12.40
2022-10-23T01:54:13.976Z,12.40
2022-10-23T01:56:49.776Z,12.40
2022-10-23T01:59:27.125Z,12.40
2022-10-23T02:02:00.415Z,12.40
2022-10-23T02:04:46.238Z,12.40
2022-10-23T02:07:17.976Z,12.30
2022-10-23T02:09:49.716Z,12.30
2022-10-23T02:12:21.486Z,12.20
2022-10-23T02:14:57.830Z,12.10
2022-10-23T02:17:46.963Z,12.10
2022-10-23T02:20:29.396Z,12.00
2022-10-23T02:23:16.490Z,11.90
2022-10-23T02:26:03.638Z,11.90
2022-10-23T02:28:40.409Z,11.80
2022-10-23T02:31:16.016Z,11.70
2022-10-23T02:33:48.111Z,11.70
2022-10-23T02:36:19.924Z,11.70
2022-10-23T02:38:51.671Z,11.70
2022-10-23T02:41:35.644Z,11.80
2022-10-23T02:44:33.808Z,11.70
2022-10-23T02:47:11.264Z,11.80
2022-10-23T02:49:57.444Z,11.80
2022-10-23T02:52:47.883Z,11.80
2022-10-23T02:55:21.962Z,11.80
2022-10-23T02:57:53.638Z,11.80
2022-10-23T03:00:25.420Z,11.80
2022-10-23T03:02:58.873Z,11.70
2022-10-23T03:05:32.154Z,11.70
2022-10-23T03:08:05.034Z,11.70
2022-10-23T03:10:36.858Z,11.70
2022-10-23T03:13:09.806Z,11.60
2022-10-23T03:15:43.818Z,11.60
2022-10-23T03:18:15.546Z,11.60
2022-10-23T03:20:49.760Z,11.50
2022-10-23T03:23:23.684Z,11.60
2022-10-23T03:25:56.519Z,11.60
2022-10-23T03:28:28.255Z,11.60
2022-10-23T03:31:02.251Z,11.70
2022-10-23T03:33:33.970Z,11.70
2022-10-23T03:36:08.516Z,11.80
2022-10-23T03:38:42.753Z,11.80
2022-10-23T03:41:14.491Z,11.70
2022-10-23T03:43:48.323Z,11.80
2022-10-23T03:46:20.125Z,11.80
2022-10-23T03:48:55.527Z,11.80
2022-10-23T03:51:27.301Z,11.90
2022-10-23T03:53:59.044Z,11.90
2022-10-23T03:56:30.813Z,11.90
2022-10-23T03:59:02.528Z,12.00
2022-10-23T04:01:34.430Z,11.90
2022-10-23T04:04:06.334Z,12.00
2022-10-23T04:06:38.396Z,12.00
2022-10-23T04:11:44.928Z,12.10
2022-10-23T04:14:17.852Z,12.10
2022-10-23T04:16:51.825Z,12.20
2022-10-23T04:19:23.539Z,12.20
2022-10-23T04:21:55.307Z,12.20
2022-10-23T04:24:27.065Z,12.20
2022-10-23T04:26:58.783Z,12.30
2022-10-23T04:29:32.567Z,12.30
2022-10-23T04:32:04.359Z,12.30
2022-10-23T04:34:36.086Z,12.40
2022-10-23T04:37:07.908Z,12.40
2022-10-23T04:39:39.611Z,12.40
2022-10-23T04:42:11.365Z,12.40
2022-10-23T04:44:43.089Z,12.40
2022-10-23T04:47:14.799Z,12.40
2022-10-23T04:49:46.500Z,12.40
2022-10-23T04:52:18.281Z,12.40
2022-10-23T04:54:50.010Z,12.40
2022-10-23T04:57:21.840Z,12.40
2022-10-23T04:59:53.537Z,12.40
2022-10-23T05:02:25.323Z,12.40
2022-10-23T05:04:57.017Z,12.40
2022-10-23T05:07:28.781Z,12.40
2022-10-23T05:10:00.524Z,12.40
2022-10-23T05:12:32.281Z,12.40
2022-10-23T05:15:04.211Z,12.40
2022-10-23T05:17:37.573Z,12.20
2022-10-23T05:20:14.864Z,12.20
2022-10-23T05:22:48.919Z,12.10
2022-10-23T05:25:21.127Z,12.00
2022-10-23T05:27:53.102Z,12.00
2022-10-23T05:30:24.836Z,12.00
2022-10-23T05:32:59.407Z,12.00
2022-10-23T05:35:31.265Z,12.00
2022-10-23T05:38:06.852Z,12.00
2022-10-23T05:43:11.380Z,12.10
2022-10-23T05:45:43.569Z,12.10
2022-10-23T05:48:29.964Z,12.10
2022-10-23T05:51:06.643Z,12.10
2022-10-23T05:53:40.387Z,12.20
2022-10-23T05:56:14.216Z,12.10
2022-10-23T05:58:46.174Z,12.20
2022-10-23T06:01:20.353Z,12.20
2022-10-23T06:03:52.194Z,12.30
2022-10-23T06:06:26.841Z,12.30
2022-10-23T06:08:58.714Z,12.30
2022-10-23T06:11:30.557Z,12.30
2022-10-23T06:14:02.412Z,12.30
2022-10-23T06:16:34.167Z,12.40
2022-10-23T06:19:09.445Z,12.40
2022-10-23T06:21:41.218Z,12.50
2022-10-23T06:24:12.954Z,12.60
2022-10-23T06:26:45.105Z,12.70
2022-10-23T06:29:16.823Z,12.80
2022-10-23T06:31:48.742Z,12.90
2022-10-23T06:34:20.486Z,12.90
2022-10-23T06:36:52.225Z,13.00
2022-10-23T06:39:25.214Z,13.10
2022-10-23T06:41:59.043Z,13.10
2022-10-23T06:44:33.348Z,13.10
2022-10-23T06:47:05.181Z,13.10
2022-10-23T06:49:37.000Z,13.10
2022-10-23T06:52:14.484Z,13.10
2022-10-23T06:54:54.958Z,13.20
2022-10-23T06:57:26.688Z,13.20
2022-10-23T06:59:58.403Z,13.30
2022-10-23T07:02:30.142Z,13.30
2022-10-23T07:05:01.856Z,13.30
2022-10-23T07:07:33.557Z,13.40
2022-10-23T07:10:05.625Z,13.40
2022-10-23T07:12:37.410Z,13.40
2022-10-23T07:15:09.371Z,13.50
2022-10-23T07:17:41.191Z,13.50
2022-10-23T07:20:12.996Z,13.50
2022-10-23T07:22:47.310Z,13.50
2022-10-23T07:25:19.089Z,13.50
2022-10-23T07:27:55.446Z,13.60
2022-10-23T07:30:29.566Z,13.50
2022-10-23T07:33:01.279Z,13.60
2022-10-23T07:35:35.663Z,13.60
2022-10-23T07:38:10.238Z,13.70
2022-10-23T07:40:42.005Z,13.80
2022-10-23T07:43:13.727Z,13.80
2022-10-23T07:45:48.924Z,13.80
2022-10-23T07:48:21.833Z,13.90
2022-10-23T07:50:54.009Z,13.90
2022-10-23T07:53:28.147Z,13.90
2022-10-23T07:56:02.085Z,13.90
2022-10-23T07:58:33.771Z,14.00
2022-10-23T08:01:12.400Z,14.00
2022-10-23T08:03:44.153Z,14.10
2022-10-23T08:06:15.861Z,14.10
2022-10-23T08:08:47.581Z,14.10
2022-10-23T08:11:25.953Z,14.20
2022-10-23T08:13:58.039Z,14.30
2022-10-23T08:16:30.077Z,14.40
2022-10-23T08:19:02.269Z,14.50
2022-10-23T08:21:34.208Z,14.60
2022-10-23T08:24:06.305Z,14.70
2022-10-23T08:26:38.196Z,14.70
2022-10-23T08:29:10.041Z,14.80
2022-10-23T08:31:44.479Z,14.70
2022-10-23T08:34:16.431Z,14.80
2022-10-23T08:36:48.520Z,14.80
2022-10-23T08:39:20.380Z,14.80
2022-10-23T08:41:52.630Z,14.90
2022-10-23T08:44:30.544Z,15.00
2022-10-23T08:47:02.589Z,15.10
2022-10-23T08:49:34.307Z,15.30
2022-10-23T08:52:26.815Z,15.40
2022-10-23T08:55:01.761Z,15.40
2022-10-23T08:57:40.043Z,15.40
2022-10-23T09:00:16.368Z,15.20
2022-10-23T09:02:49.581Z,15.20
2022-10-23T09:05:27.205Z,15.30
2022-10-23T09:08:01.876Z,15.30
2022-10-23T09:10:58.811Z,15.20
2022-10-23T09:13:40.399Z,15.10
2022-10-23T09:16:30.525Z,15.00
2022-10-23T09:19:02.292Z,15.00
2022-10-23T09:21:35.755Z,15.00
2022-10-23T09:24:12.159Z,14.90
2022-10-23T09:26:49.912Z,14.90
2022-10-23T09:29:25.768Z,15.00
2022-10-23T09:32:01.129Z,15.10
2022-10-23T09:34:34.202Z,15.30
2022-10-23T09:37:28.459Z,15.50
2022-10-23T09:40:11.623Z,15.60
2022-10-23T09:43:12.858Z,15.60
2022-10-23T09:45:44.594Z,15.80
2022-10-23T09:48:18.131Z,15.80
2022-10-23T09:50:52.914Z,15.90
2022-10-23T09:53:37.154Z,16.00
2022-10-23T09:56:29.889Z,16.10
2022-10-23T09:59:06.163Z,16.10
2022-10-23T10:01:46.494Z,16.10
2022-10-23T10:04:18.751Z,16.00
2022-10-23T10:06:56.685Z,15.90
2022-10-23T10:09:28.517Z,15.90
2022-10-23T10:12:14.580Z,15.90
2022-10-23T10:14:52.378Z,15.80
2022-10-23T10:17:30.183Z,15.70
2022-10-23T10:20:06.968Z,15.50
2022-10-23T10:23:00.960Z,15.40
2022-10-23T10:25:38.877Z,15.30
2022-10-23T10:28:13.390Z,15.10
2022-10-23T10:31:05.314Z,15.20
2022-10-23T10:33:48.973Z,15.10
2022-10-23T10:39:04.748Z,15.00
2022-10-23T10:41:44.954Z,15.00
2022-10-23T10:44:25.995Z,15.00
2022-10-23T10:47:00.829Z,14.90
2022-10-23T10:49:51.411Z,14.80
2022-10-23T10:52:29.343Z,14.70
2022-10-23T10:55:13.429Z,14.60
2022-10-23T10:57:59.189Z,14.60
2022-10-23T11:00:33.458Z,14.50
2022-10-23T11:03:20.427Z,14.50
2022-10-23T11:05:54.142Z,14.40
2022-10-23T11:08:44.524Z,14.40
2022-10-23T11:11:32.151Z,14.40
2022-10-23T11:14:03.997Z,14.40
2022-10-23T11:16:37.607Z,14.50
2022-10-23T11:19:24.064Z,14.50
2022-10-23T11:22:05.137Z,14.60
2022-10-23T11:24:52.428Z,14.70
2022-10-23T11:27:31.236Z,14.80
2022-10-23T11:30:12.035Z,14.80
2022-10-23T11:32:57.332Z,14.90
2022-10-23T11:35:47.825Z,15.00
2022-10-23T11:38:26.730Z,15.10
2022-10-23T11:41:07.052Z,15.20
2022-10-23T11:44:01.717Z,15.40
2022-10-23T11:46:38.242Z,15.60
2022-10-23T11:49:20.083Z,15.60
2022-10-23T11:52:05.152Z,15.60
2022-10-23T11:54:38.975Z,15.60
2022-10-23T11:57:12.791Z,15.60
2022-10-23T11:59:50.355Z,15.70
2022-10-23T12:02:42.917Z,15.80
2022-10-23T12:05:45.745Z,15.90
2022-10-23T12:08:22.561Z,16.10
2022-10-23T12:10:55.462Z,16.20
2022-10-23T12:13:39.120Z,16.30
2022-10-23T12:16:11.085Z,16.30
2022-10-23T12:18:50.095Z,16.20
2022-10-23T12:21:22.961Z,16.30
2022-10-23T12:23:54.651Z,16.40
2022-10-23T12:26:32.155Z,16.50
2022-10-23T12:29:15.117Z,16.40
2022-10-23T12:31:55.065Z,16.30
2022-10-23T12:34:38.746Z,16.10
2022-10-23T12:37:25.791Z,16.00
2022-10-23T12:39:59.281Z,15.80
2022-10-23T12:42:31.121Z,15.70
2022-10-23T12:45:02.860Z,15.70
2022-10-23T12:47:34.607Z,15.80
2022-10-23T12:50:19.421Z,16.00
2022-10-23T12:53:01.331Z,16.30
2022-10-23T12:56:05.510Z,16.80
2022-10-23T12:58:39.498Z,17.10
2022-10-23T13:01:22.622Z,17.00
2022-10-23T13:04:15.516Z,16.70
2022-10-23T13:06:47.533Z,16.40
2022-10-23T13:09:29.919Z,16.00
2022-10-23T13:12:03.487Z,15.70
2022-10-23T13:14:39.387Z,15.40
2022-10-23T13:17:13.859Z,15.30
2022-10-23T13:19:45.589Z,15.10
2022-10-23T13:22:20.162Z,15.00
2022-10-23T13:24:54.231Z,14.90
2022-10-23T13:27:26.147Z,14.80
2022-10-23T13:30:00.361Z,14.80
2022-10-23T13:32:32.092Z,14.70
2022-10-23T13:35:20.464Z,14.70
2022-10-23T13:37:53.474Z,14.60
2022-10-23T13:40:26.931Z,14.60
2022-10-23T13:43:00.900Z,14.60
2022-10-23T13:45:35.449Z,14.70
2022-10-23T13:48:12.385Z,14.80
2022-10-23T13:50:44.090Z,14.90
2022-10-23T13:53:18.578Z,15.10
2022-10-23T13:55:56.383Z,15.30
2022-10-23T13:58:30.446Z,15.30
2022-10-23T14:01:02.248Z,15.30
2022-10-23T14:03:34.107Z,15.30
2022-10-23T14:06:06.021Z,15.20
2022-10-23T14:08:37.819Z,15.10
2022-10-23T14:11:11.094Z,15.00
2022-10-23T14:13:42.934Z,15.00
2022-10-23T14:16:16.330Z,14.90
2022-10-23T14:18:48.245Z,14.90
2022-10-23T14:21:20.723Z,14.80
2022-10-23T14:23:53.438Z,14.80
2022-10-23T14:26:27.613Z,14.70
2022-10-23T14:29:02.434Z,14.70
2022-10-23T14:31:41.002Z,14.60
2022-10-23T14:34:13.605Z,14.50
2022-10-23T14:36:50.257Z,14.50
2022-10-23T14:39:28.342Z,14.40
2022-10-23T14:42:00.092Z,14.30
2022-10-23T14:44:31.861Z,14.20
2022-10-23T14:47:05.982Z,14.10
2022-10-23T14:49:40.243Z,14.00
2022-10-23T14:52:12.107Z,13.90
2022-10-23T14:54:46.075Z,13.80
2022-10-23T14:57:19.445Z,13.70
2022-10-23T14:59:51.325Z,13.60
2022-10-23T15:02:23.017Z,13.50
2022-10-23T15:04:57.385Z,13.40
2022-10-23T15:07:29.105Z,13.30
2022-10-23T15:10:03.498Z,13.20
2022-10-23T15:12:38.474Z,13.10
2022-10-23T15:15:10.436Z,13.00
2022-10-23T15:17:42.431Z,12.90
2022-10-23T15:20:14.210Z,12.80
2022-10-23T15:22:46.174Z,12.80
2022-10-23T15:25:20.306Z,12.70
2022-10-23T15:27:52.244Z,12.60
2022-10-23T15:30:24.060Z,12.50
2022-10-23T15:32:55.808Z,12.50
2022-10-23T15:38:00.143Z,12.30
2022-10-23T15:40:31.857Z,12.20
2022-10-23T15:43:05.000Z,12.10
2022-10-23T15:45:36.777Z,12.10
2022-10-23T15:48:09.030Z,12.00
2022-10-23T15:50:43.038Z,11.90
2022-10-23T15:53:14.759Z,11.90
2022-10-23T15:55:46.990Z,11.80
2022-10-23T15:58:18.770Z,11.70
2022-10-23T16:00:50.522Z,11.60
2022-10-23T16:03:22.259Z,11.60
2022-10-23T16:05:54.016Z,11.50
2022-10-23T16:08:26.200Z,11.50
2022-10-23T16:11:00.446Z,11.40
2022-10-23T16:13:32.182Z,11.30
2022-10-23T16:16:04.056Z,11.20
2022-10-23T16:18:38.735Z,11.20
2022-10-23T16:21:24.159Z,11.10
2022-10-23T16:23:57.031Z,11.10
2022-10-23T16:26:29.347Z,11.10
2022-10-23T16:29:02.458Z,11.00
2022-10-23T16:31:34.504Z,10.90
2022-10-23T16:34:08.465Z,10.90
2022-10-23T16:36:40.274Z,10.80
2022-10-23T16:39:12.606Z,10.70
2022-10-23T16:41:44.586Z,10.70
2022-10-23T16:44:18.501Z,10.60
2022-10-23T16:46:52.547Z,10.60
2022-10-23T16:49:27.079Z,10.50
2022-10-23T16:52:01.223Z,10.40
2022-10-23T16:54:35.728Z,10.40
2022-10-23T16:57:07.472Z,10.30
2022-10-23T16:59:39.163Z,10.30
2022-10-23T17:02:14.164Z,10.20
2022-10-23T17:04:46.082Z,10.20
2022-10-23T17:07:18.432Z,10.10
2022-10-23T17:09:50.285Z,10.10
2022-10-23T17:12:24.507Z,10.00
2022-10-23T17:14:56.283Z,10.00
2022-10-23T17:17:28.132Z,10.00
2022-10-23T17:19:59.969Z,10.00
2022-10-23T17:22:31.757Z,10.00
2022-10-23T17:25:03.580Z,9.90
2022-10-23T17:27:35.378Z,9.90
2022-10-23T17:30:12.401Z,9.90
2022-10-23T17:32:44.811Z,9.90
2022-10-23T17:35:18.925Z,9.80
2022-10-23T17:37:50.755Z,9.80
2022-10-23T17:40:27.367Z,9.80
2022-10-23T17:42:59.858Z,9.70
2022-10-23T17:45:34.189Z,9.70
2022-10-23T17:48:06.181Z,9.70
2022-10-23T17:50:40.421Z,9.60
2022-10-23T17:53:12.181Z,9.60
2022-10-23T17:55:46.203Z,9.60
2022-10-23T17:58:20.097Z,9.60
2022-10-23T18:00:52.826Z,9.60
2022-10-23T18:03:24.586Z,9.70
2022-10-23T18:05:58.602Z,9.70
2022-10-23T18:08:30.590Z,9.60
2022-10-23T18:11:04.428Z,9.60
2022-10-23T18:13:36.633Z,9.60
2022-10-23T18:16:11.400Z,9.50
2022-10-23T18:18:43.869Z,9.50
2022-10-23T18:21:16.624Z,9.50
2022-10-23T18:23:48.651Z,9.50
2022-10-23T18:26:27.948Z,9.60
2022-10-23T18:28:59.830Z,9.60
2022-10-23T18:31:33.841Z,9.60
2022-10-23T18:34:08.746Z,9.60
2022-10-23T18:36:42.107Z,9.60
2022-10-23T18:39:17.509Z,9.60
2022-10-23T18:41:50.492Z,9.60
2022-10-23T18:44:23.317Z,9.60
2022-10-23T18:46:55.963Z,9.60
2022-10-23T18:49:28.024Z,9.60
2022-10-23T18:51:59.858Z,9.60
2022-10-23T18:54:31.989Z,9.60
2022-10-23T18:57:03.765Z,9.60
2022-10-23T18:59:35.554Z,9.60
2022-10-23T19:02:07.447Z,9.60
2022-10-23T19:04:39.274Z,9.60
2022-10-23T19:07:11.038Z,9.50
2022-10-23T19:09:42.945Z,9.50
2022-10-23T19:14:55.051Z,9.50
2022-10-23T19:17:31.491Z,9.40
2022-10-23T19:20:10.203Z,9.40
2022-10-23T19:22:43.908Z,9.40
2022-10-23T19:25:23.291Z,9.40
2022-10-23T19:27:55.792Z,9.30
2022-10-23T19:30:28.044Z,9.30
2022-10-23T19:32:59.745Z,9.30
2022-10-23T19:35:31.504Z,9.30
2022-10-23T19:38:03.290Z,9.20
2022-10-23T19:40:35.105Z,9.20
2022-10-23T19:43:09.048Z,9.20
2022-10-23T19:45:40.809Z,9.20
2022-10-23T19:48:12.495Z,9.20
2022-10-23T19:50:46.669Z,9.20
2022-10-23T19:53:18.411Z,9.20
2022-10-23T19:55:50.463Z,9.20
2022-10-23T19:58:22.179Z,9.20
2022-10-23T20:00:56.168Z,9.20
2022-10-23T20:03:27.873Z,9.20
2022-10-23T20:05:59.684Z,9.20
2022-10-23T20:08:34.991Z,9.20
2022-10-23T20:11:07.189Z,9.20
2022-10-23T20:13:38.909Z,9.20
2022-10-23T20:16:16.097Z,9.20
2022-10-23T20:18:48.032Z,9.20
2022-10-23T20:21:19.897Z,9.20
2022-10-23T20:23:51.949Z,9.20
2022-10-23T20:26:23.868Z,9.30
2022-10-23T20:28:56.048Z,9.40
2022-10-23T20:31:28.126Z,9.50
2022-10-23T20:33:59.968Z,9.50
2022-10-23T20:36:32.834Z,9.60
2022-10-23T20:39:06.319Z,9.60
2022-10-23T20:41:38.780Z,9.70
2022-10-23T20:44:12.143Z,9.70
2022-10-23T20:46:44.569Z,9.70
2022-10-23T20:49:16.762Z,9.70
2022-10-23T20:51:55.058Z,9.70
2022-10-23T20:54:28.901Z,9.70
2022-10-23T20:57:01.256Z,9.80
2022-10-23T20:59:34.162Z,9.80
2022-10-23T21:02:08.410Z,9.80
2022-10-23T21:04:40.163Z,9.80
2022-10-23T21:07:11.970Z,9.90
2022-10-23T21:09:43.713Z,9.90
2022-10-23T21:12:15.457Z,9.80
2022-10-23T21:14:47.175Z,9.90
2022-10-23T21:17:18.962Z,9.80
2022-10-23T21:19:50.736Z,9.80
2022-10-23T21:22:22.469Z,9.80
2022-10-23T21:24:56.223Z,9.80
2022-10-23T21:27:30.149Z,9.90
2022-10-23T21:30:04.032Z,9.80
2022-10-23T21:32:35.800Z,9.90
2022-10-23T21:35:07.937Z,9.90
2022-10-23T21:37:39.674Z,9.90
2022-10-23T21:40:11.482Z,9.90
2022-10-23T21:42:43.288Z,9.90
2022-10-23T21:45:14.999Z,9.90
2022-10-23T21:47:47.001Z,9.90
2022-10-23T21:50:21.264Z,9.90
2022-10-23T21:52:53.092Z,9.90
2022-10-23T21:55:29.765Z,9.90
2022-10-23T21:58:03.586Z,9.90
2022-10-23T22:00:37.709Z,9.90
2022-10-23T22:03:09.472Z,10.00
2022-10-23T22:05:41.182Z,10.00
2022-10-23T22:08:13.344Z,10.00
2022-10-23T22:10:45.033Z,10.10
2022-10-23T22:13:19.236Z,10.10
2022-10-23T22:15:53.136Z,10.10
2022-10-23T22:18:24.868Z,10.10
2022-10-23T22:21:01.371Z,10.10
2022-10-23T22:23:35.597Z,10.20
2022-10-23T22:26:08.452Z,10.20
2022-10-23T22:28:42.700Z,10.20
2022-10-23T22:31:24.015Z,10.20
2022-10-23T22:33:56.281Z,10.20
2022-10-23T22:36:27.968Z,10.30
2022-10-23T22:38:59.705Z,10.20
2022-10-23T22:41:31.687Z,10.30
2022-10-23T22:44:05.843Z,10.30
2022-10-23T22:46:38.057Z,10.20
2022-10-23T22:49:10.270Z,10.30
2022-10-23T22:51:42.004Z,10.20
2022-10-23T22:54:13.749Z,10.20
2022-10-23T22:56:50.225Z,10.20
2022-10-23T22:59:21.935Z,10.20
2022-10-23T23:01:55.905Z,10.20
2022-10-23T23:04:37.967Z,10.20
2022-10-23T23:07:11.782Z,10.20
2022-10-23T23:09:44.045Z,10.10
2022-10-23T23:12:15.800Z,10.10
2022-10-23T23:14:50.002Z,10.00
2022-10-23T23:17:24.229Z,10.00
2022-10-23T23:19:55.972Z,10.00
2022-10-23T23:25:04.504Z,9.90
2022-10-23T23:27:36.188Z,9.80
2022-10-23T23:30:10.903Z,9.80
2022-10-23T23:32:42.886Z,9.70
2022-10-23T23:35:14.883Z,9.70
2022-10-23T23:37:46.784Z,9.60
2022-10-23T23:40:18.536Z,9.60
2022-10-23T23:42:50.275Z,9.50
2022-10-23T23:45:22.032Z,9.50
2022-10-23T23:47:53.790Z,9.40
2022-10-23T23:50:26.333Z,9.50
2022-10-23T23:52:58.004Z,9.50
2022-10-23T23:55:29.879Z,9.50
2022-10-23T23:58:01.640Z,9.50
